sensor_id;sensor_type;location;lat;lon;timestamp;temperature;humidity
17851;DHT22;9051;51.548;14.348;2023-04-07T00:01:04;0.90;99.90
17851;DHT22;9051;51.548;14.348;2023-04-07T00:03:36;0.90;99.90
17851;DHT22;9051;51.548;14.348;2023-04-07T00:06:10;0.90;99.90
17851;DHT22;9051;51.548;14.348;2023-04-07T00:08:42;0.90;99.90
17851;DHT22;9051;51.548;14.348;2023-04-07T00:11:15;0.90;99.90
17851;DHT22;9051;51.548;14.348;2023-04-07T00:13:47;0.90;99.90
17851;DHT22;9051;51.548;14.348;2023-04-07T00:16:19;0.90;99.90
17851;DHT22;9051;51.548;14.348;2023-04-07T00:18:51;0.80;99.90
17851;DHT22;9051;51.548;14.348;2023-04-07T00:21:23;0.90;99.90
17851;DHT22;9051;51.548;14.348;2023-04-07T00:23:56;0.90;99.90
17851;DHT22;9051;51.548;14.348;2023-04-07T00:26:30;0.90;99.90
17851;DHT22;9051;51.548;14.348;2023-04-07T00:29:02;0.90;99.90
17851;DHT22;9051;51.548;14.348;2023-04-07T00:31:34;0.90;99.90
17851;DHT22;9051;51.548;14.348;2023-04-07T00:34:06;0.90;99.90
17851;DHT22;9051;51.548;14.348;2023-04-07T00:36:38;0.80;99.90
17851;DHT22;9051;51.548;14.348;2023-04-07T00:39:10;0.90;99.90
17851;DHT22;9051;51.548;14.348;2023-04-07T00:41:43;0.90;99.90
17851;DHT22;9051;51.548;14.348;2023-04-07T00:44:15;0.90;99.90
17851;DHT22;9051;51.548;14.348;2023-04-07T00:46:47;0.90;99.90
17851;DHT22;9051;51.548;14.348;2023-04-07T00:49:20;0.90;99.90
17851;DHT22;9051;51.548;14.348;2023-04-07T00:51:51;1.00;99.90
17851;DHT22;9051;51.548;14.348;2023-04-07T00:54:24;1.00;99.90
17851;DHT22;9051;51.548;14.348;2023-04-07T00:56:58;0.80;99.90
17851;DHT22;9051;51.548;14.348;2023-04-07T00:59:31;0.80;99.90
17851;DHT22;9051;51.548;14.348;2023-04-07T01:02:09;0.80;99.90
17851;DHT22;9051;51.548;14.348;2023-04-07T01:04:46;0.80;99.90
17851;DHT22;9051;51.548;14.348;2023-04-07T01:07:26;0.80;99.90
17851;DHT22;9051;51.548;14.348;2023-04-07T01:10:18;0.90;99.90
17851;DHT22;9051;51.548;14.348;2023-04-07T01:13:03;0.90;99.90
17851;DHT22;9051;51.548;14.348;2023-04-07T01:15:38;0.90;99.90
17851;DHT22;9051;51.548;14.348;2023-04-07T01:18:16;0.90;99.90
17851;DHT22;9051;51.548;14.348;2023-04-07T01:20:57;0.90;99.90
17851;DHT22;9051;51.548;14.348;2023-04-07T01:23:48;1.00;99.90
17851;DHT22;9051;51.548;14.348;2023-04-07T01:26:26;1.00;99.90
17851;DHT22;9051;51.548;14.348;2023-04-07T01:29:29;0.90;99.90
17851;DHT22;9051;51.548;14.348;2023-04-07T01:32:04;1.00;99.90
17851;DHT22;9051;51.548;14.348;2023-04-07T01:34:37;1.00;99.90
17851;DHT22;9051;51.548;14.348;2023-04-07T01:37:12;1.00;99.90
17851;DHT22;9051;51.548;14.348;2023-04-07T01:39:44;1.00;99.90
17851;DHT22;9051;51.548;14.348;2023-04-07T01:42:18;1.10;99.90
17851;DHT22;9051;51.548;14.348;2023-04-07T01:44:52;1.10;99.90
17851;DHT22;9051;51.548;14.348;2023-04-07T01:47:24;1.10;99.90
17851;DHT22;9051;51.548;14.348;2023-04-07T01:50:00;1.00;99.90
17851;DHT22;9051;51.548;14.348;2023-04-07T01:52:34;1.10;99.90
17851;DHT22;9051;51.548;14.348;2023-04-07T01:55:07;1.10;99.90
17851;DHT22;9051;51.548;14.348;2023-04-07T01:57:44;1.10;99.90
17851;DHT22;9051;51.548;14.348;2023-04-07T02:00:21;1.10;99.90
17851;DHT22;9051;51.548;14.348;2023-04-07T02:03:00;1.10;99.90
17851;DHT22;9051;51.548;14.348;2023-04-07T02:05:37;1.10;99.90
17851;DHT22;9051;51.548;14.348;2023-04-07T02:08:15;1.10;99.90
17851;DHT22;9051;51.548;14.348;2023-04-07T02:10:50;1.10;99.90
17851;DHT22;9051;51.548;14.348;2023-04-07T02:13:23;1.10;99.90
17851;DHT22;9051;51.548;14.348;2023-04-07T02:15:58;1.10;99.90
17851;DHT22;9051;51.548;14.348;2023-04-07T02:18:31;1.20;99.90
17851;DHT22;9051;51.548;14.348;2023-04-07T02:21:03;1.20;99.90
17851;DHT22;9051;51.548;14.348;2023-04-07T02:23:36;1.20;99.90
17851;DHT22;9051;51.548;14.348;2023-04-07T02:26:09;1.20;99.90
17851;DHT22;9051;51.548;14.348;2023-04-07T02:28:41;1.20;99.90
17851;DHT22;9051;51.548;14.348;2023-04-07T02:31:15;1.20;99.90
17851;DHT22;9051;51.548;14.348;2023-04-07T02:33:47;1.20;99.90
17851;DHT22;9051;51.548;14.348;2023-04-07T02:36:19;1.20;99.90
17851;DHT22;9051;51.548;14.348;2023-04-07T02:38:50;1.20;99.90
17851;DHT22;9051;51.548;14.348;2023-04-07T02:41:22;1.20;99.90
17851;DHT22;9051;51.548;14.348;2023-04-07T02:43:54;1.20;99.90
17851;DHT22;9051;51.548;14.348;2023-04-07T02:46:27;1.20;99.90
17851;DHT22;9051;51.548;14.348;2023-04-07T02:49:00;1.10;99.90
17851;DHT22;9051;51.548;14.348;2023-04-07T02:51:32;1.10;99.90
17851;DHT22;9051;51.548;14.348;2023-04-07T02:54:04;1.10;99.90
17851;DHT22;9051;51.548;14.348;2023-04-07T02:56:36;1.10;99.90
17851;DHT22;9051;51.548;14.348;2023-04-07T02:59:08;1.10;99.90
17851;DHT22;9051;51.548;14.348;2023-04-07T03:01:46;1.10;99.90
17851;DHT22;9051;51.548;14.348;2023-04-07T03:04:18;1.10;99.90
17851;DHT22;9051;51.548;14.348;2023-04-07T03:06:50;1.10;99.90
17851;DHT22;9051;51.548;14.348;2023-04-07T03:09:22;1.10;99.90
17851;DHT22;9051;51.548;14.348;2023-04-07T03:11:54;1.00;99.90
17851;DHT22;9051;51.548;14.348;2023-04-07T03:14:26;1.00;99.90
17851;DHT22;9051;51.548;14.348;2023-04-07T03:17:00;1.00;99.90
17851;DHT22;9051;51.548;14.348;2023-04-07T03:19:31;1.00;99.90
17851;DHT22;9051;51.548;14.348;2023-04-07T03:22:03;1.00;99.90
17851;DHT22;9051;51.548;14.348;2023-04-07T03:24:39;1.00;99.90
17851;DHT22;9051;51.548;14.348;2023-04-07T03:27:11;0.90;99.90
17851;DHT22;9051;51.548;14.348;2023-04-07T03:29:48;0.90;99.90
17851;DHT22;9051;51.548;14.348;2023-04-07T03:32:22;0.90;99.90
17851;DHT22;9051;51.548;14.348;2023-04-07T03:34:54;0.90;99.90
17851;DHT22;9051;51.548;14.348;2023-04-07T03:37:26;0.80;99.90
17851;DHT22;9051;51.548;14.348;2023-04-07T03:39:59;0.70;99.90
17851;DHT22;9051;51.548;14.348;2023-04-07T03:42:36;0.70;99.90
17851;DHT22;9051;51.548;14.348;2023-04-07T03:45:11;0.60;99.90
17851;DHT22;9051;51.548;14.348;2023-04-07T03:47:48;0.60;99.90
17851;DHT22;9051;51.548;14.348;2023-04-07T03:50:21;0.50;99.90
17851;DHT22;9051;51.548;14.348;2023-04-07T03:53:06;0.50;99.90
17851;DHT22;9051;51.548;14.348;2023-04-07T03:55:39;0.50;99.90
17851;DHT22;9051;51.548;14.348;2023-04-07T03:58:18;0.50;99.90
17851;DHT22;9051;51.548;14.348;2023-04-07T04:00:52;0.50;99.90
17851;DHT22;9051;51.548;14.348;2023-04-07T04:03:25;0.50;99.90
17851;DHT22;9051;51.548;14.348;2023-04-07T04:06:13;0.50;99.90
17851;DHT22;9051;51.548;14.348;2023-04-07T04:08:45;0.50;99.90
17851;DHT22;9051;51.548;14.348;2023-04-07T04:11:17;0.50;99.90
17851;DHT22;9051;51.548;14.348;2023-04-07T04:13:58;0.50;99.90
17851;DHT22;9051;51.548;14.348;2023-04-07T04:16:30;0.50;99.90
17851;DHT22;9051;51.548;14.348;2023-04-07T04:19:08;0.50;99.90
17851;DHT22;9051;51.548;14.348;2023-04-07T04:21:41;0.50;99.90
17851;DHT22;9051;51.548;14.348;2023-04-07T04:24:14;0.50;99.90
17851;DHT22;9051;51.548;14.348;2023-04-07T04:26:47;0.40;99.90
17851;DHT22;9051;51.548;14.348;2023-04-07T04:29:19;0.40;99.90
17851;DHT22;9051;51.548;14.348;2023-04-07T04:31:51;0.40;99.90
17851;DHT22;9051;51.548;14.348;2023-04-07T04:34:25;0.50;99.90
17851;DHT22;9051;51.548;14.348;2023-04-07T04:36:59;0.50;99.90
17851;DHT22;9051;51.548;14.348;2023-04-07T04:39:31;0.50;99.90
17851;DHT22;9051;51.548;14.348;2023-04-07T04:42:05;0.50;99.90
17851;DHT22;9051;51.548;14.348;2023-04-07T04:44:39;0.40;99.90
17851;DHT22;9051;51.548;14.348;2023-04-07T04:47:12;0.40;99.90
17851;DHT22;9051;51.548;14.348;2023-04-07T04:49:45;0.40;99.90
17851;DHT22;9051;51.548;14.348;2023-04-07T04:52:18;0.40;99.90
17851;DHT22;9051;51.548;14.348;2023-04-07T04:54:52;0.40;99.90
17851;DHT22;9051;51.548;14.348;2023-04-07T04:57:25;0.40;99.90
17851;DHT22;9051;51.548;14.348;2023-04-07T04:59:57;0.50;99.90
17851;DHT22;9051;51.548;14.348;2023-04-07T05:02:30;0.50;99.90
17851;DHT22;9051;51.548;14.348;2023-04-07T05:05:04;0.60;99.90
17851;DHT22;9051;51.548;14.348;2023-04-07T05:07:37;0.70;99.90
17851;DHT22;9051;51.548;14.348;2023-04-07T05:10:11;0.80;99.90
17851;DHT22;9051;51.548;14.348;2023-04-07T05:12:50;0.90;99.90
17851;DHT22;9051;51.548;14.348;2023-04-07T05:15:21;0.90;99.90
17851;DHT22;9051;51.548;14.348;2023-04-07T05:17:54;1.00;99.90
17851;DHT22;9051;51.548;14.348;2023-04-07T05:20:31;1.10;99.90
17851;DHT22;9051;51.548;14.348;2023-04-07T05:23:03;1.20;99.90
17851;DHT22;9051;51.548;14.348;2023-04-07T05:25:37;1.40;99.90
17851;DHT22;9051;51.548;14.348;2023-04-07T05:28:10;1.40;99.90
17851;DHT22;9051;51.548;14.348;2023-04-07T05:30:42;1.60;99.90
17851;DHT22;9051;51.548;14.348;2023-04-07T05:33:14;1.70;99.90
17851;DHT22;9051;51.548;14.348;2023-04-07T05:35:51;1.80;99.90
17851;DHT22;9051;51.548;14.348;2023-04-07T05:38:23;1.90;99.90
17851;DHT22;9051;51.548;14.348;2023-04-07T05:40:59;2.00;99.90
17851;DHT22;9051;51.548;14.348;2023-04-07T05:43:37;2.00;99.90
17851;DHT22;9051;51.548;14.348;2023-04-07T05:46:10;2.20;99.90
17851;DHT22;9051;51.548;14.348;2023-04-07T05:48:50;2.30;99.90
17851;DHT22;9051;51.548;14.348;2023-04-07T05:51:25;2.30;99.90
17851;DHT22;9051;51.548;14.348;2023-04-07T05:54:01;2.50;99.90
17851;DHT22;9051;51.548;14.348;2023-04-07T05:56:33;2.60;99.90
17851;DHT22;9051;51.548;14.348;2023-04-07T05:59:05;2.70;99.90
17851;DHT22;9051;51.548;14.348;2023-04-07T06:01:38;2.80;99.90
17851;DHT22;9051;51.548;14.348;2023-04-07T06:04:10;2.90;99.90
17851;DHT22;9051;51.548;14.348;2023-04-07T06:06:43;3.00;99.90
17851;DHT22;9051;51.548;14.348;2023-04-07T06:09:15;3.20;99.90
17851;DHT22;9051;51.548;14.348;2023-04-07T06:11:47;3.20;99.90
17851;DHT22;9051;51.548;14.348;2023-04-07T06:14:20;3.30;99.90
17851;DHT22;9051;51.548;14.348;2023-04-07T06:16:51;3.40;99.90
17851;DHT22;9051;51.548;14.348;2023-04-07T06:19:23;3.50;99.90
17851;DHT22;9051;51.548;14.348;2023-04-07T06:21:59;3.50;99.90
17851;DHT22;9051;51.548;14.348;2023-04-07T06:24:31;3.50;99.90
17851;DHT22;9051;51.548;14.348;2023-04-07T06:27:02;3.60;99.90
17851;DHT22;9051;51.548;14.348;2023-04-07T06:29:35;3.60;99.90
17851;DHT22;9051;51.548;14.348;2023-04-07T06:32:09;3.70;99.90
17851;DHT22;9051;51.548;14.348;2023-04-07T06:34:42;3.80;99.90
17851;DHT22;9051;51.548;14.348;2023-04-07T06:37:15;3.90;99.90
17851;DHT22;9051;51.548;14.348;2023-04-07T06:39:47;4.00;99.90
17851;DHT22;9051;51.548;14.348;2023-04-07T06:42:19;4.00;99.90
17851;DHT22;9051;51.548;14.348;2023-04-07T06:45:07;4.10;99.90
17851;DHT22;9051;51.548;14.348;2023-04-07T06:47:39;4.10;99.90
17851;DHT22;9051;51.548;14.348;2023-04-07T06:50:11;4.20;99.90
17851;DHT22;9051;51.548;14.348;2023-04-07T06:52:44;4.20;99.90
17851;DHT22;9051;51.548;14.348;2023-04-07T06:55:16;4.30;99.90
17851;DHT22;9051;51.548;14.348;2023-04-07T06:57:48;4.40;99.90
17851;DHT22;9051;51.548;14.348;2023-04-07T07:00:22;4.40;99.90
17851;DHT22;9051;51.548;14.348;2023-04-07T07:02:54;4.50;99.90
17851;DHT22;9051;51.548;14.348;2023-04-07T07:05:26;4.50;99.90
17851;DHT22;9051;51.548;14.348;2023-04-07T07:08:00;4.50;99.90
17851;DHT22;9051;51.548;14.348;2023-04-07T07:10:33;4.50;99.90
17851;DHT22;9051;51.548;14.348;2023-04-07T07:13:05;4.60;99.90
17851;DHT22;9051;51.548;14.348;2023-04-07T07:15:36;4.60;99.90
17851;DHT22;9051;51.548;14.348;2023-04-07T07:18:08;4.60;99.90
17851;DHT22;9051;51.548;14.348;2023-04-07T07:20:40;4.60;99.90
17851;DHT22;9051;51.548;14.348;2023-04-07T07:23:13;4.70;99.90
17851;DHT22;9051;51.548;14.348;2023-04-07T07:25:45;4.80;99.90
17851;DHT22;9051;51.548;14.348;2023-04-07T07:28:17;4.80;99.90
17851;DHT22;9051;51.548;14.348;2023-04-07T07:30:51;4.90;99.90
17851;DHT22;9051;51.548;14.348;2023-04-07T07:33:23;5.00;99.90
17851;DHT22;9051;51.548;14.348;2023-04-07T07:35:54;5.10;99.90
17851;DHT22;9051;51.548;14.348;2023-04-07T07:38:28;5.10;99.90
17851;DHT22;9051;51.548;14.348;2023-04-07T07:41:00;5.20;99.90
17851;DHT22;9051;51.548;14.348;2023-04-07T07:43:31;5.30;99.90
17851;DHT22;9051;51.548;14.348;2023-04-07T07:46:03;5.40;99.90
17851;DHT22;9051;51.548;14.348;2023-04-07T07:48:35;5.50;99.90
17851;DHT22;9051;51.548;14.348;2023-04-07T07:51:07;5.50;99.90
17851;DHT22;9051;51.548;14.348;2023-04-07T07:53:41;5.60;99.90
17851;DHT22;9051;51.548;14.348;2023-04-07T07:56:16;5.70;99.90
17851;DHT22;9051;51.548;14.348;2023-04-07T07:58:48;5.70;99.90
17851;DHT22;9051;51.548;14.348;2023-04-07T08:01:20;5.80;99.90
17851;DHT22;9051;51.548;14.348;2023-04-07T08:03:51;5.80;99.90
17851;DHT22;9051;51.548;14.348;2023-04-07T08:06:23;5.90;99.90
17851;DHT22;9051;51.548;14.348;2023-04-07T08:08:58;5.90;99.90
17851;DHT22;9051;51.548;14.348;2023-04-07T08:11:29;6.00;99.90
17851;DHT22;9051;51.548;14.348;2023-04-07T08:14:01;6.00;99.90
17851;DHT22;9051;51.548;14.348;2023-04-07T08:16:33;6.10;99.90
17851;DHT22;9051;51.548;14.348;2023-04-07T08:19:05;6.20;99.90
17851;DHT22;9051;51.548;14.348;2023-04-07T08:21:37;6.20;99.90
17851;DHT22;9051;51.548;14.348;2023-04-07T08:24:11;6.30;99.90
17851;DHT22;9051;51.548;14.348;2023-04-07T08:26:43;6.30;99.90
17851;DHT22;9051;51.548;14.348;2023-04-07T08:29:15;6.40;99.90
17851;DHT22;9051;51.548;14.348;2023-04-07T08:31:47;6.40;99.90
17851;DHT22;9051;51.548;14.348;2023-04-07T08:34:19;6.50;99.90
17851;DHT22;9051;51.548;14.348;2023-04-07T08:36:51;6.60;99.90
17851;DHT22;9051;51.548;14.348;2023-04-07T08:39:24;6.70;99.90
17851;DHT22;9051;51.548;14.348;2023-04-07T08:41:57;6.70;99.90
17851;DHT22;9051;51.548;14.348;2023-04-07T08:44:29;6.70;99.90
17851;DHT22;9051;51.548;14.348;2023-04-07T08:47:03;6.80;99.90
17851;DHT22;9051;51.548;14.348;2023-04-07T08:49:39;6.80;99.90
17851;DHT22;9051;51.548;14.348;2023-04-07T08:52:14;6.90;99.90
17851;DHT22;9051;51.548;14.348;2023-04-07T08:54:48;7.00;99.90
17851;DHT22;9051;51.548;14.348;2023-04-07T08:57:20;7.00;99.90
17851;DHT22;9051;51.548;14.348;2023-04-07T08:59:52;7.00;99.90
17851;DHT22;9051;51.548;14.348;2023-04-07T09:02:24;7.10;99.90
17851;DHT22;9051;51.548;14.348;2023-04-07T09:04:56;7.10;99.90
17851;DHT22;9051;51.548;14.348;2023-04-07T09:07:29;7.20;99.90
17851;DHT22;9051;51.548;14.348;2023-04-07T09:10:03;7.20;99.90
17851;DHT22;9051;51.548;14.348;2023-04-07T09:12:36;7.30;99.90
17851;DHT22;9051;51.548;14.348;2023-04-07T09:15:08;7.30;99.90
17851;DHT22;9051;51.548;14.348;2023-04-07T09:17:40;7.30;99.90
17851;DHT22;9051;51.548;14.348;2023-04-07T09:20:12;7.40;99.90
17851;DHT22;9051;51.548;14.348;2023-04-07T09:22:44;7.40;99.90
17851;DHT22;9051;51.548;14.348;2023-04-07T09:25:19;7.50;99.90
17851;DHT22;9051;51.548;14.348;2023-04-07T09:27:56;7.60;99.90
17851;DHT22;9051;51.548;14.348;2023-04-07T09:30:30;7.60;99.90
17851;DHT22;9051;51.548;14.348;2023-04-07T09:33:02;7.60;99.90
17851;DHT22;9051;51.548;14.348;2023-04-07T09:35:50;7.70;99.90
17851;DHT22;9051;51.548;14.348;2023-04-07T09:38:32;7.70;99.90
17851;DHT22;9051;51.548;14.348;2023-04-07T09:41:06;7.70;99.90
17851;DHT22;9051;51.548;14.348;2023-04-07T09:43:40;7.70;99.90
17851;DHT22;9051;51.548;14.348;2023-04-07T09:46:15;7.80;99.90
17851;DHT22;9051;51.548;14.348;2023-04-07T09:49:00;7.80;99.90
17851;DHT22;9051;51.548;14.348;2023-04-07T09:51:34;7.90;99.90
17851;DHT22;9051;51.548;14.348;2023-04-07T09:54:06;7.90;99.90
17851;DHT22;9051;51.548;14.348;2023-04-07T09:56:39;7.90;99.90
17851;DHT22;9051;51.548;14.348;2023-04-07T09:59:13;8.00;99.90
17851;DHT22;9051;51.548;14.348;2023-04-07T10:01:46;8.10;99.90
17851;DHT22;9051;51.548;14.348;2023-04-07T10:04:18;8.20;99.90
17851;DHT22;9051;51.548;14.348;2023-04-07T10:06:51;8.30;99.90
17851;DHT22;9051;51.548;14.348;2023-04-07T10:09:25;8.40;99.90
17851;DHT22;9051;51.548;14.348;2023-04-07T10:11:58;8.40;99.90
17851;DHT22;9051;51.548;14.348;2023-04-07T10:14:31;8.50;99.90
17851;DHT22;9051;51.548;14.348;2023-04-07T10:17:03;8.50;99.90
17851;DHT22;9051;51.548;14.348;2023-04-07T10:19:35;8.50;99.90
17851;DHT22;9051;51.548;14.348;2023-04-07T10:22:07;8.40;99.90
17851;DHT22;9051;51.548;14.348;2023-04-07T10:24:48;8.40;99.90
17851;DHT22;9051;51.548;14.348;2023-04-07T10:27:36;8.40;99.90
17851;DHT22;9051;51.548;14.348;2023-04-07T10:30:13;8.40;99.90
17851;DHT22;9051;51.548;14.348;2023-04-07T10:32:46;8.50;99.90
17851;DHT22;9051;51.548;14.348;2023-04-07T10:35:19;8.40;99.90
17851;DHT22;9051;51.548;14.348;2023-04-07T10:38:12;8.40;99.90
17851;DHT22;9051;51.548;14.348;2023-04-07T10:40:44;8.40;99.90
17851;DHT22;9051;51.548;14.348;2023-04-07T10:43:36;8.20;99.90
17851;DHT22;9051;51.548;14.348;2023-04-07T10:46:09;8.10;99.90
17851;DHT22;9051;51.548;14.348;2023-04-07T10:48:41;8.10;99.90
17851;DHT22;9051;51.548;14.348;2023-04-07T10:51:16;8.10;99.90
17851;DHT22;9051;51.548;14.348;2023-04-07T10:54:22;8.30;99.90
17851;DHT22;9051;51.548;14.348;2023-04-07T10:57:06;8.30;99.90
17851;DHT22;9051;51.548;14.348;2023-04-07T11:00:14;8.40;99.90
17851;DHT22;9051;51.548;14.348;2023-04-07T11:02:47;8.30;99.90
17851;DHT22;9051;51.548;14.348;2023-04-07T11:05:20;8.20;99.90
17851;DHT22;9051;51.548;14.348;2023-04-07T11:07:53;8.20;99.90
17851;DHT22;9051;51.548;14.348;2023-04-07T11:10:27;8.30;99.90
17851;DHT22;9051;51.548;14.348;2023-04-07T11:13:04;8.30;99.90
17851;DHT22;9051;51.548;14.348;2023-04-07T11:15:38;8.30;99.90
17851;DHT22;9051;51.548;14.348;2023-04-07T11:18:12;8.40;99.90
17851;DHT22;9051;51.548;14.348;2023-04-07T11:20:46;8.30;99.90
17851;DHT22;9051;51.548;14.348;2023-04-07T11:23:19;8.30;99.90
17851;DHT22;9051;51.548;14.348;2023-04-07T11:25:58;8.30;99.90
17851;DHT22;9051;51.548;14.348;2023-04-07T11:28:31;8.30;99.90
17851;DHT22;9051;51.548;14.348;2023-04-07T11:31:04;8.20;99.90
17851;DHT22;9051;51.548;14.348;2023-04-07T11:33:36;8.20;99.90
17851;DHT22;9051;51.548;14.348;2023-04-07T11:36:10;8.10;99.90
17851;DHT22;9051;51.548;14.348;2023-04-07T11:38:42;8.00;99.90
17851;DHT22;9051;51.548;14.348;2023-04-07T11:41:15;8.00;99.90
17851;DHT22;9051;51.548;14.348;2023-04-07T11:44:20;8.00;99.90
17851;DHT22;9051;51.548;14.348;2023-04-07T11:47:32;7.80;99.90
17851;DHT22;9051;51.548;14.348;2023-04-07T11:50:09;7.90;99.90
17851;DHT22;9051;51.548;14.348;2023-04-07T11:52:47;7.80;99.90
17851;DHT22;9051;51.548;14.348;2023-04-07T11:55:34;7.80;99.90
17851;DHT22;9051;51.548;14.348;2023-04-07T11:58:30;7.80;99.90
17851;DHT22;9051;51.548;14.348;2023-04-07T12:01:12;7.80;99.90
17851;DHT22;9051;51.548;14.348;2023-04-07T12:03:56;7.90;99.90
17851;DHT22;9051;51.548;14.348;2023-04-07T12:06:39;7.90;99.90
17851;DHT22;9051;51.548;14.348;2023-04-07T12:09:32;7.90;99.90
17851;DHT22;9051;51.548;14.348;2023-04-07T12:12:09;8.00;99.90
17851;DHT22;9051;51.548;14.348;2023-04-07T12:14:41;7.90;99.90
17851;DHT22;9051;51.548;14.348;2023-04-07T12:17:19;7.70;99.90
17851;DHT22;9051;51.548;14.348;2023-04-07T12:19:53;7.70;99.90
17851;DHT22;9051;51.548;14.348;2023-04-07T12:22:29;7.50;99.90
17851;DHT22;9051;51.548;14.348;2023-04-07T12:25:04;7.50;99.90
17851;DHT22;9051;51.548;14.348;2023-04-07T12:27:56;7.50;99.90
17851;DHT22;9051;51.548;14.348;2023-04-07T12:31:04;7.50;99.90
17851;DHT22;9051;51.548;14.348;2023-04-07T12:33:59;7.60;99.90
17851;DHT22;9051;51.548;14.348;2023-04-07T12:36:49;7.40;99.90
17851;DHT22;9051;51.548;14.348;2023-04-07T12:39:26;7.40;99.90
17851;DHT22;9051;51.548;14.348;2023-04-07T12:42:02;7.20;99.90
17851;DHT22;9051;51.548;14.348;2023-04-07T12:44:37;7.30;99.90
17851;DHT22;9051;51.548;14.348;2023-04-07T12:47:09;7.30;99.90
17851;DHT22;9051;51.548;14.348;2023-04-07T12:49:48;7.20;99.90
17851;DHT22;9051;51.548;14.348;2023-04-07T12:52:38;7.20;99.90
17851;DHT22;9051;51.548;14.348;2023-04-07T12:55:16;7.30;99.90
17851;DHT22;9051;51.548;14.348;2023-04-07T12:57:56;7.30;99.90
17851;DHT22;9051;51.548;14.348;2023-04-07T13:00:31;7.40;99.90
17851;DHT22;9051;51.548;14.348;2023-04-07T13:03:44;7.40;99.90
17851;DHT22;9051;51.548;14.348;2023-04-07T13:07:01;7.30;99.90
17851;DHT22;9051;51.548;14.348;2023-04-07T13:09:43;7.40;99.90
17851;DHT22;9051;51.548;14.348;2023-04-07T13:12:25;7.30;99.90
17851;DHT22;9051;51.548;14.348;2023-04-07T13:17:58;7.30;99.90
17851;DHT22;9051;51.548;14.348;2023-04-07T13:20:30;7.20;99.90
17851;DHT22;9051;51.548;14.348;2023-04-07T13:23:02;7.10;99.90
17851;DHT22;9051;51.548;14.348;2023-04-07T13:25:36;7.10;99.90
17851;DHT22;9051;51.548;14.348;2023-04-07T13:28:08;7.10;99.90
17851;DHT22;9051;51.548;14.348;2023-04-07T13:30:40;7.00;99.90
17851;DHT22;9051;51.548;14.348;2023-04-07T13:33:12;7.00;99.90
17851;DHT22;9051;51.548;14.348;2023-04-07T13:35:44;7.00;99.90
17851;DHT22;9051;51.548;14.348;2023-04-07T13:38:16;7.00;99.90
17851;DHT22;9051;51.548;14.348;2023-04-07T13:40:49;7.00;99.90
17851;DHT22;9051;51.548;14.348;2023-04-07T13:43:21;7.00;99.90
17851;DHT22;9051;51.548;14.348;2023-04-07T13:45:52;7.00;99.90
17851;DHT22;9051;51.548;14.348;2023-04-07T13:48:25;7.00;99.90
17851;DHT22;9051;51.548;14.348;2023-04-07T13:50:57;7.00;99.90
17851;DHT22;9051;51.548;14.348;2023-04-07T13:53:29;7.00;99.90
17851;DHT22;9051;51.548;14.348;2023-04-07T13:56:03;6.90;99.90
17851;DHT22;9051;51.548;14.348;2023-04-07T13:58:37;6.90;99.90
17851;DHT22;9051;51.548;14.348;2023-04-07T14:01:09;6.90;99.90
17851;DHT22;9051;51.548;14.348;2023-04-07T14:03:41;6.90;99.90
17851;DHT22;9051;51.548;14.348;2023-04-07T14:06:13;6.90;99.90
17851;DHT22;9051;51.548;14.348;2023-04-07T14:08:45;6.90;99.90
17851;DHT22;9051;51.548;14.348;2023-04-07T14:11:19;6.90;99.90
17851;DHT22;9051;51.548;14.348;2023-04-07T14:13:52;6.90;99.90
17851;DHT22;9051;51.548;14.348;2023-04-07T14:16:24;6.90;99.90
17851;DHT22;9051;51.548;14.348;2023-04-07T14:18:56;6.90;99.90
17851;DHT22;9051;51.548;14.348;2023-04-07T14:21:28;6.80;99.90
17851;DHT22;9051;51.548;14.348;2023-04-07T14:24:00;6.80;99.90
17851;DHT22;9051;51.548;14.348;2023-04-07T14:26:34;6.70;99.90
17851;DHT22;9051;51.548;14.348;2023-04-07T14:29:05;6.60;99.90
17851;DHT22;9051;51.548;14.348;2023-04-07T14:31:37;6.70;99.90
17851;DHT22;9051;51.548;14.348;2023-04-07T14:34:09;6.60;99.90
17851;DHT22;9051;51.548;14.348;2023-04-07T14:36:42;6.60;99.90
17851;DHT22;9051;51.548;14.348;2023-04-07T14:39:23;6.70;99.90
17851;DHT22;9051;51.548;14.348;2023-04-07T14:41:56;6.70;99.90
17851;DHT22;9051;51.548;14.348;2023-04-07T14:44:28;6.80;99.90
17851;DHT22;9051;51.548;14.348;2023-04-07T14:47:00;6.80;99.90
17851;DHT22;9051;51.548;14.348;2023-04-07T14:49:32;6.80;99.90
17851;DHT22;9051;51.548;14.348;2023-04-07T14:52:04;6.80;99.90
17851;DHT22;9051;51.548;14.348;2023-04-07T14:54:36;6.70;99.90
17851;DHT22;9051;51.548;14.348;2023-04-07T14:57:09;6.70;99.90
17851;DHT22;9051;51.548;14.348;2023-04-07T14:59:41;6.70;99.90
17851;DHT22;9051;51.548;14.348;2023-04-07T15:02:13;6.80;99.90
17851;DHT22;9051;51.548;14.348;2023-04-07T15:04:45;6.80;99.90
17851;DHT22;9051;51.548;14.348;2023-04-07T15:07:17;6.80;99.90
17851;DHT22;9051;51.548;14.348;2023-04-07T15:09:49;6.70;99.90
17851;DHT22;9051;51.548;14.348;2023-04-07T15:12:22;6.70;99.90
17851;DHT22;9051;51.548;14.348;2023-04-07T15:14:54;6.80;99.90
17851;DHT22;9051;51.548;14.348;2023-04-07T15:17:26;6.70;99.90
17851;DHT22;9051;51.548;14.348;2023-04-07T15:19:57;6.80;99.90
17851;DHT22;9051;51.548;14.348;2023-04-07T15:22:29;6.80;99.90
17851;DHT22;9051;51.548;14.348;2023-04-07T15:25:01;6.70;99.90
17851;DHT22;9051;51.548;14.348;2023-04-07T15:27:35;6.60;99.90
17851;DHT22;9051;51.548;14.348;2023-04-07T15:30:07;6.60;99.90
17851;DHT22;9051;51.548;14.348;2023-04-07T15:32:39;6.60;99.90
17851;DHT22;9051;51.548;14.348;2023-04-07T15:35:11;6.60;99.90
17851;DHT22;9051;51.548;14.348;2023-04-07T15:37:43;6.70;99.90
17851;DHT22;9051;51.548;14.348;2023-04-07T15:40:15;6.70;99.90
17851;DHT22;9051;51.548;14.348;2023-04-07T15:42:48;6.60;99.90
17851;DHT22;9051;51.548;14.348;2023-04-07T15:45:20;6.70;99.90
17851;DHT22;9051;51.548;14.348;2023-04-07T15:47:52;6.70;99.90
17851;DHT22;9051;51.548;14.348;2023-04-07T15:50:24;6.60;99.90
17851;DHT22;9051;51.548;14.348;2023-04-07T15:52:57;6.70;99.90
17851;DHT22;9051;51.548;14.348;2023-04-07T15:55:29;6.70;99.90
17851;DHT22;9051;51.548;14.348;2023-04-07T15:58:03;6.70;99.90
17851;DHT22;9051;51.548;14.348;2023-04-07T16:00:34;6.60;99.90
17851;DHT22;9051;51.548;14.348;2023-04-07T16:03:08;6.60;99.90
17851;DHT22;9051;51.548;14.348;2023-04-07T16:05:40;6.60;99.90
17851;DHT22;9051;51.548;14.348;2023-04-07T16:08:12;6.50;99.90
17851;DHT22;9051;51.548;14.348;2023-04-07T16:10:44;6.50;99.90
17851;DHT22;9051;51.548;14.348;2023-04-07T16:13:17;6.40;99.90
17851;DHT22;9051;51.548;14.348;2023-04-07T16:15:49;6.50;99.90
17851;DHT22;9051;51.548;14.348;2023-04-07T16:18:21;6.40;99.90
17851;DHT22;9051;51.548;14.348;2023-04-07T16:20:53;6.40;99.90
17851;DHT22;9051;51.548;14.348;2023-04-07T16:23:24;6.40;99.90
17851;DHT22;9051;51.548;14.348;2023-04-07T16:25:56;6.50;99.90
17851;DHT22;9051;51.548;14.348;2023-04-07T16:28:29;6.40;99.90
17851;DHT22;9051;51.548;14.348;2023-04-07T16:31:01;6.30;99.90
17851;DHT22;9051;51.548;14.348;2023-04-07T16:33:36;6.20;99.90
17851;DHT22;9051;51.548;14.348;2023-04-07T16:36:08;6.10;99.90